Time;durP1;ratioP1;P1;durP2;ratioP2;P2;SDS_P1;SDS_P2;PMS_P1;PMS_P2;Temp;Humidity;BMP_temperature;BMP_pressure;BME280_temperature;BME280_humidity;BME280_pressure;Samples;Min_cycle;Max_cycle;Signal;HPM_P1;HPM_P2
2023/03/22 00:02:12;;;;;;;10.88;2.75;;;11.10;99.90;;;;;;5012259;28;20141;-60
2023/03/22 00:04:42;;;;;;;12.57;2.55;;;11.20;99.90;;;;;;5014395;28;20060;-58
2023/03/22 00:07:09;;;;;;;15.18;2.58;;;11.20;99.90;;;;;;5023814;28;20080;-58
2023/03/22 00:09:35;;;;;;;5.93;1.20;;;11.20;99.90;;;;;;5020456;28;20044;-59
2023/03/22 00:12:02;;;;;;;7.65;1.63;;;11.20;99.90;;;;;;5015796;28;20412;-59
2023/03/22 00:14:29;;;;;;;7.55;1.27;;;11.20;99.90;;;;;;5018155;28;20050;-60
2023/03/22 00:16:56;;;;;;;11.45;1.88;;;11.20;99.90;;;;;;5018136;28;20244;-59
2023/03/22 00:19:23;;;;;;;11.98;2.58;;;11.20;99.90;;;;;;5014743;28;20053;-60
2023/03/22 00:21:50;;;;;;;8.18;2.22;;;11.30;99.90;;;;;;5017658;28;20313;-59
2023/03/22 00:24:17;;;;;;;12.48;1.83;;;11.30;99.90;;;;;;5023629;28;20038;-59
2023/03/22 00:26:46;;;;;;;12.25;1.70;;;11.30;99.90;;;;;;5019735;28;20092;-60
2023/03/22 00:29:12;;;;;;;11.93;1.90;;;11.20;99.90;;;;;;5011892;28;20070;-60
2023/03/22 00:31:40;;;;;;;11.25;1.77;;;11.30;99.90;;;;;;5016131;28;20103;-59
2023/03/22 00:34:06;;;;;;;13.10;2.33;;;11.30;99.90;;;;;;5025192;28;20049;-56
2023/03/22 00:36:33;;;;;;;18.63;2.15;;;11.20;99.90;;;;;;5022248;28;20132;-58
2023/03/22 00:39:00;;;;;;;6.68;2.03;;;11.30;99.90;;;;;;5011468;28;20041;-59
2023/03/22 00:41:27;;;;;;;7.22;1.63;;;11.30;99.90;;;;;;4995860;28;20492;-60
2023/03/22 00:43:53;;;;;;;16.08;2.70;;;11.30;99.90;;;;;;5025626;28;20046;-60
2023/03/22 00:46:20;;;;;;;13.27;2.35;;;11.30;99.90;;;;;;5021819;28;20060;-59
2023/03/22 00:48:47;;;;;;;10.45;1.88;;;11.30;99.90;;;;;;5012755;28;20088;-60
2023/03/22 00:51:14;;;;;;;15.65;2.25;;;11.30;99.90;;;;;;5014504;28;20056;-58
2023/03/22 00:53:41;;;;;;;11.55;2.15;;;11.30;99.90;;;;;;5022847;28;20092;-60
2023/03/22 00:56:12;;;;;;;10.30;2.28;;;11.30;99.90;;;;;;5020818;28;20538;-59
2023/03/22 00:58:40;;;;;;;12.20;1.65;;;11.30;99.90;;;;;;5015104;28;20050;-59
2023/03/22 01:01:07;;;;;;;13.95;1.95;;;11.20;99.90;;;;;;5000889;28;20045;-60
2023/03/22 01:03:34;;;;;;;12.20;2.30;;;11.20;99.90;;;;;;5016715;28;20320;-60
2023/03/22 01:06:01;;;;;;;22.85;2.67;;;11.20;99.90;;;;;;5015934;28;20137;-58
2023/03/22 01:08:31;;;;;;;13.52;2.00;;;11.20;99.90;;;;;;5017870;28;20515;-58
2023/03/22 01:10:59;;;;;;;18.77;3.17;;;11.20;99.90;;;;;;5021666;28;20563;-57
2023/03/22 01:13:26;;;;;;;6.53;1.38;;;11.20;99.90;;;;;;5016907;28;20061;-60
2023/03/22 01:15:53;;;;;;;10.55;1.67;;;11.20;99.90;;;;;;5023892;28;20601;-59
2023/03/22 01:18:20;;;;;;;10.77;1.85;;;11.20;99.90;;;;;;5019589;28;20046;-59
2023/03/22 01:20:46;;;;;;;14.38;1.73;;;11.20;99.90;;;;;;5010643;28;20092;-61
2023/03/22 01:23:13;;;;;;;12.15;2.08;;;11.20;99.90;;;;;;5015261;28;20074;-58
2023/03/22 01:25:40;;;;;;;8.57;1.85;;;11.20;99.90;;;;;;5024610;28;20140;-60
2023/03/22 01:28:07;;;;;;;10.27;2.20;;;11.20;99.90;;;;;;5015418;28;20664;-59
2023/03/22 01:30:34;;;;;;;13.23;2.30;;;11.20;99.90;;;;;;5027707;28;20563;-59
2023/03/22 01:33:01;;;;;;;16.67;2.63;;;11.20;99.90;;;;;;5025963;28;20053;-58
2023/03/22 01:35:27;;;;;;;19.33;3.10;;;11.20;99.90;;;;;;5012915;28;20046;-59
2023/03/22 01:37:54;;;;;;;21.70;2.25;;;11.20;99.90;;;;;;5017907;28;20515;-59
2023/03/22 01:40:21;;;;;;;9.52;1.90;;;11.20;99.90;;;;;;5027549;28;20053;-60
2023/03/22 01:42:48;;;;;;;9.40;1.67;;;11.20;99.90;;;;;;5020406;28;20046;-59
2023/03/22 01:45:18;;;;;;;11.02;1.83;;;11.20;99.90;;;;;;5024557;28;20527;-59
2023/03/22 01:47:46;;;;;;;13.15;2.30;;;11.10;99.90;;;;;;5023528;28;20050;-58
2023/03/22 01:50:13;;;;;;;18.70;2.58;;;11.10;99.90;;;;;;5020019;28;20093;-57
2023/03/22 01:52:40;;;;;;;12.77;2.20;;;11.20;99.90;;;;;;5001281;28;20389;-58
2023/03/22 01:55:08;;;;;;;15.35;2.70;;;11.20;99.90;;;;;;5003275;28;20561;-58
2023/03/22 01:57:36;;;;;;;13.10;2.08;;;11.20;99.90;;;;;;4989779;28;20049;-59
2023/03/22 02:00:09;;;;;;;12.98;3.03;;;11.20;99.90;;;;;;5022719;28;20045;-58
2023/03/22 02:02:35;;;;;;;9.98;2.22;;;11.20;99.90;;;;;;4998932;28;20088;-58
2023/03/22 02:05:03;;;;;;;16.67;3.28;;;11.20;99.90;;;;;;5002076;28;20076;-59
2023/03/22 02:07:30;;;;;;;18.33;2.72;;;11.20;99.90;;;;;;5027041;28;20221;-59
2023/03/22 02:09:58;;;;;;;13.63;1.98;;;11.20;99.90;;;;;;5001977;28;20072;-58
2023/03/22 02:12:47;;;;;;;21.48;2.47;;;11.20;99.90;;;;;;5022553;28;20041;-59
2023/03/22 02:15:22;;;;;;;18.55;2.03;;;11.20;99.90;;;;;;5004355;28;20684;-60
2023/03/22 02:18:27;;;;;;;17.27;2.67;;;11.10;99.90;;;;;;4997014;28;20073;-60
2023/03/22 02:21:03;;;;;;;;;;;11.20;99.90;;;;;;5019417;28;20118;-58
2023/03/22 02:23:48;;;;;;;17.25;2.45;;;11.10;99.90;;;;;;5006045;28;19952;-59
2023/03/22 02:26:45;;;;;;;18.67;2.38;;;11.10;99.90;;;;;;5021730;28;20041;-60
2023/03/22 02:29:15;;;;;;;9.60;1.95;;;11.10;99.90;;;;;;5018054;28;20049;-58
2023/03/22 02:31:57;;;;;;;13.88;1.98;;;11.20;99.90;;;;;;5023575;28;20042;-58
2023/03/22 02:34:39;;;;;;;9.50;2.55;;;11.10;99.90;;;;;;5022527;28;20145;-58
2023/03/22 02:37:26;;;;;;;10.98;2.70;;;11.00;99.90;;;;;;5016268;28;20046;-60
2023/03/22 02:40:04;;;;;;;20.75;4.85;;;11.00;99.90;;;;;;5008648;28;20067;-59
2023/03/22 02:42:58;;;;;;;25.13;3.88;;;10.90;99.90;;;;;;5006190;28;20526;-59
2023/03/22 02:45:28;;;;;;;18.13;2.05;;;11.00;99.90;;;;;;4998127;28;20129;-60
2023/03/22 02:48:06;;;;;;;12.35;2.10;;;10.90;99.90;;;;;;5027795;28;20071;-59
2023/03/22 02:50:52;;;;;;;15.10;3.45;;;10.90;99.90;;;;;;5007213;28;20049;-60
2023/03/22 02:54:01;;;;;;;12.55;2.70;;;10.90;99.90;;;;;;5010477;28;20042;-60
2023/03/22 02:56:33;;;;;;;15.20;2.22;;;10.90;99.90;;;;;;4971704;28;20052;-59
2023/03/22 02:59:02;;;;;;;8.60;2.00;;;10.90;99.90;;;;;;4966033;28;20420;-59
2023/03/22 03:01:48;;;;;;;12.20;1.90;;;10.90;99.90;;;;;;5007672;28;20056;-61
2023/03/22 03:04:20;;;;;;;13.68;3.85;;;10.90;99.90;;;;;;5012534;28;20078;-59
2023/03/22 03:06:47;;;;;;;12.32;2.55;;;10.90;99.90;;;;;;5004739;28;20564;-58
2023/03/22 03:09:18;;;;;;;13.57;2.63;;;10.90;99.90;;;;;;4995427;28;20052;-59
2023/03/22 03:11:49;;;;;;;17.67;3.17;;;10.90;99.90;;;;;;4999513;28;20061;-59
2023/03/22 03:14:21;;;;;;;16.77;3.08;;;10.90;99.90;;;;;;5005775;28;20501;-59
2023/03/22 03:16:52;;;;;;;11.98;1.85;;;10.90;99.90;;;;;;5023581;28;20055;-59
2023/03/22 03:19:24;;;;;;;8.38;1.92;;;10.90;99.90;;;;;;4995268;28;20552;-59
2023/03/22 03:21:57;;;;;;;7.85;2.00;;;10.90;99.90;;;;;;4997314;28;20050;-59
2023/03/22 03:24:39;;;;;;;11.48;2.17;;;10.90;99.90;;;;;;5011422;28;20128;-58
2023/03/22 03:27:16;;;;;;;12.02;2.65;;;10.90;99.90;;;;;;4982415;28;20129;-58
2023/03/22 03:29:53;;;;;;;13.50;2.40;;;10.80;99.90;;;;;;4982101;28;20077;-58
2023/03/22 03:32:51;;;;;;;14.60;2.42;;;10.80;99.90;;;;;;4999131;28;20669;-59
2023/03/22 03:35:24;;;;;;;14.30;2.50;;;10.80;99.90;;;;;;5007700;28;20037;-58
2023/03/22 03:38:06;;;;;;;17.42;2.30;;;10.70;99.90;;;;;;4999625;28;20123;-59
2023/03/22 03:40:36;;;;;;;14.82;2.20;;;10.80;99.90;;;;;;4994206;28;20037;-61
2023/03/22 03:43:03;;;;;;;16.48;2.38;;;10.70;99.90;;;;;;4981348;28;20129;-59
2023/03/22 03:45:30;;;;;;;11.23;1.98;;;10.70;99.90;;;;;;4993746;28;20115;-57
2023/03/22 03:47:59;;;;;;;17.95;1.70;;;10.60;99.90;;;;;;4998234;28;20481;-57
2023/03/22 03:50:25;;;;;;;12.63;2.00;;;10.60;99.90;;;;;;5008733;28;20045;-58
2023/03/22 03:52:53;;;;;;;16.98;2.70;;;10.60;99.90;;;;;;4989956;28;20412;-59
2023/03/22 03:55:20;;;;;;;13.93;2.25;;;10.70;99.90;;;;;;5010114;28;20050;-62
2023/03/22 03:57:47;;;;;;;15.50;2.83;;;10.60;99.90;;;;;;5015316;28;20172;-56
2023/03/22 04:00:14;;;;;;;12.55;1.70;;;10.60;99.90;;;;;;5013038;28;20069;-57
2023/03/22 04:02:41;;;;;;;11.32;2.38;;;10.60;99.90;;;;;;5014893;28;20056;-58
2023/03/22 04:05:09;;;;;;;9.10;1.42;;;10.50;99.90;;;;;;5000201;28;20049;-57
2023/03/22 04:07:36;;;;;;;9.63;1.98;;;10.50;99.90;;;;;;5019285;28;20482;-60
2023/03/22 04:10:04;;;;;;;16.35;2.78;;;10.50;99.90;;;;;;5022464;28;20049;-59
2023/03/22 04:12:31;;;;;;;11.48;2.97;;;10.50;99.90;;;;;;5020729;28;20052;-59
2023/03/22 04:14:58;;;;;;;10.52;1.70;;;10.50;99.90;;;;;;5017056;28;20133;-58
2023/03/22 04:17:27;;;;;;;10.02;1.58;;;10.50;99.90;;;;;;5015349;28;20412;-58
2023/03/22 04:19:57;;;;;;;5.15;1.05;;;10.50;99.90;;;;;;5018159;28;20553;-58
2023/03/22 04:22:25;;;;;;;13.52;1.65;;;10.50;99.90;;;;;;5021994;28;20128;-58
2023/03/22 04:24:51;;;;;;;11.38;2.03;;;10.50;99.90;;;;;;5019604;28;20101;-58
2023/03/22 04:27:19;;;;;;;7.85;1.48;;;10.50;99.90;;;;;;5011979;28;20052;-58
2023/03/22 04:29:49;;;;;;;4.35;1.25;;;10.40;99.90;;;;;;5015400;28;20100;-59
2023/03/22 04:32:21;;;;;;;5.90;0.93;;;10.40;99.90;;;;;;5011766;28;20046;-59
2023/03/22 04:34:49;;;;;;;4.88;1.38;;;10.40;99.90;;;;;;5016398;28;20077;-58
2023/03/22 04:37:15;;;;;;;7.60;1.63;;;10.40;99.90;;;;;;5025106;28;20061;-58
2023/03/22 04:39:42;;;;;;;7.25;1.20;;;10.30;99.90;;;;;;5003761;28;20136;-58
2023/03/22 04:42:09;;;;;;;6.65;1.13;;;10.30;99.90;;;;;;5011067;28;20046;-57
2023/03/22 04:44:36;;;;;;;7.50;2.78;;;10.30;99.90;;;;;;5012525;28;20125;-58
2023/03/22 04:47:03;;;;;;;3.80;0.90;;;10.30;99.90;;;;;;5009523;28;20048;-58
2023/03/22 04:49:30;;;;;;;6.07;0.95;;;10.30;99.90;;;;;;5014176;28;20050;-59
2023/03/22 04:51:57;;;;;;;3.92;1.02;;;10.30;99.90;;;;;;5024404;28;20049;-59
2023/03/22 04:54:23;;;;;;;6.50;1.70;;;10.30;99.90;;;;;;5021156;28;20053;-58
2023/03/22 04:56:50;;;;;;;5.38;0.93;;;10.30;99.90;;;;;;5012714;28;20064;-58
2023/03/22 04:59:19;;;;;;;6.20;1.30;;;10.30;99.90;;;;;;5019890;28;20053;-57
2023/03/22 05:01:49;;;;;;;4.65;0.98;;;10.30;99.90;;;;;;5014356;28;20046;-61
2023/03/22 05:04:16;;;;;;;6.95;1.00;;;10.30;99.90;;;;;;5014255;28;20187;-59
2023/03/22 05:06:44;;;;;;;2.80;0.90;;;10.20;99.90;;;;;;5019420;28;20164;-58
2023/03/22 05:09:10;;;;;;;5.75;1.45;;;10.20;99.90;;;;;;5022455;28;20507;-58
2023/03/22 05:11:37;;;;;;;3.78;0.90;;;10.20;99.90;;;;;;5017647;28;20045;-57
2023/03/22 05:14:04;;;;;;;5.82;1.30;;;10.20;99.90;;;;;;5004174;28;20049;-57
2023/03/22 05:16:31;;;;;;;2.83;0.80;;;10.20;99.90;;;;;;5018878;28;20045;-57
2023/03/22 05:19:01;;;;;;;3.28;0.80;;;10.20;99.90;;;;;;5011327;28;20076;-56
2023/03/22 05:21:35;;;;;;;10.63;1.10;;;10.20;99.90;;;;;;5016790;28;20081;-58
2023/03/22 05:24:02;;;;;;;5.45;0.88;;;10.20;99.90;;;;;;5023689;28;20088;-58
2023/03/22 05:26:29;;;;;;;8.23;1.58;;;10.20;99.90;;;;;;5015675;28;20065;-57
2023/03/22 05:28:56;;;;;;;6.00;0.90;;;10.20;99.90;;;;;;5024798;28;20108;-58
2023/03/22 05:31:22;;;;;;;5.82;0.73;;;10.20;99.90;;;;;;5020687;28;20045;-57
2023/03/22 05:33:50;;;;;;;5.30;0.90;;;10.20;99.90;;;;;;5010272;28;20050;-58
2023/03/22 05:36:18;;;;;;;6.90;1.95;;;10.20;99.90;;;;;;4995287;28;20133;-58
2023/03/22 05:38:45;;;;;;;5.22;1.25;;;10.20;99.90;;;;;;5025841;28;20053;-58
2023/03/22 05:41:12;;;;;;;7.07;1.20;;;10.20;99.90;;;;;;5013707;28;20061;-58
2023/03/22 05:43:39;;;;;;;3.67;0.93;;;10.20;99.90;;;;;;5023423;28;20045;-59
2023/03/22 05:46:07;;;;;;;11.73;1.20;;;10.10;99.90;;;;;;5020697;28;20052;-59
2023/03/22 05:48:35;;;;;;;6.32;0.93;;;10.10;99.90;;;;;;5012064;28;20054;-57
2023/03/22 05:51:05;;;;;;;7.93;1.67;;;10.10;99.90;;;;;;5014970;28;20129;-57
2023/03/22 05:53:32;;;;;;;5.85;1.02;;;10.10;99.90;;;;;;5021916;28;20041;-59
2023/03/22 05:56:02;;;;;;;9.50;1.05;;;10.20;99.90;;;;;;5019534;28;20054;-59
2023/03/22 05:58:29;;;;;;;6.80;1.02;;;10.20;99.90;;;;;;4998941;28;20075;-59
2023/03/22 06:00:59;;;;;;;4.18;0.88;;;10.20;99.90;;;;;;5014720;28;20046;-58
2023/03/22 06:03:27;;;;;;;3.47;0.80;;;10.20;99.90;;;;;;5018043;28;20046;-59
2023/03/22 06:05:54;;;;;;;7.50;1.13;;;10.10;99.90;;;;;;5020261;28;20037;-60
2023/03/22 06:08:21;;;;;;;11.95;1.75;;;10.20;99.90;;;;;;5018630;28;20100;-59
2023/03/22 06:10:52;;;;;;;11.45;1.20;;;10.20;99.90;;;;;;5011826;28;20610;-59
2023/03/22 06:13:19;;;;;;;6.75;1.33;;;10.20;99.90;;;;;;5016117;28;20264;-59
2023/03/22 06:15:46;;;;;;;3.80;0.73;;;10.20;99.90;;;;;;5024188;28;20514;-59
2023/03/22 06:18:12;;;;;;;9.48;1.35;;;10.20;99.90;;;;;;5018451;28;20152;-58
2023/03/22 06:20:39;;;;;;;3.08;0.93;;;10.20;99.90;;;;;;5027954;28;20072;-58
2023/03/22 06:23:08;;;;;;;8.02;1.13;;;10.20;99.90;;;;;;5023762;28;20531;-59
2023/03/22 06:25:34;;;;;;;3.58;0.77;;;10.20;99.90;;;;;;5013402;28;20038;-60
2023/03/22 06:28:01;;;;;;;10.38;1.23;;;10.20;99.90;;;;;;4999013;28;20160;-58
2023/03/22 06:30:28;;;;;;;6.05;1.60;;;10.20;99.90;;;;;;5028839;28;20060;-59
2023/03/22 06:32:59;;;;;;;8.20;1.48;;;10.20;99.90;;;;;;5016395;28;20098;-59
2023/03/22 06:35:26;;;;;;;6.50;0.90;;;10.10;99.90;;;;;;5027132;28;20045;-57
2023/03/22 06:37:53;;;;;;;5.63;1.13;;;10.10;99.90;;;;;;5023591;28;20084;-59
2023/03/22 06:40:20;;;;;;;5.38;1.52;;;10.10;99.90;;;;;;5014655;28;20101;-59
2023/03/22 06:42:47;;;;;;;5.07;1.30;;;10.10;99.90;;;;;;5017791;28;20050;-60
2023/03/22 06:45:15;;;;;;;5.63;1.00;;;10.20;99.90;;;;;;5002855;28;20088;-58
2023/03/22 06:47:42;;;;;;;8.73;1.10;;;10.20;99.90;;;;;;5022209;28;20049;-60
2023/03/22 06:50:09;;;;;;;7.05;0.98;;;10.20;99.90;;;;;;5006665;28;20244;-60
2023/03/22 06:52:36;;;;;;;6.57;1.10;;;10.20;99.90;;;;;;5004567;28;20133;-59
2023/03/22 06:55:03;;;;;;;4.07;1.45;;;10.20;99.90;;;;;;5021256;28;20493;-60
2023/03/22 06:57:30;;;;;;;3.53;1.27;;;10.20;99.90;;;;;;5015132;28;20141;-59
2023/03/22 06:59:57;;;;;;;5.25;1.10;;;10.20;99.90;;;;;;5018591;28;20137;-58
2023/03/22 07:02:24;;;;;;;10.70;1.58;;;10.20;99.90;;;;;;5026133;28;20042;-58
2023/03/22 07:04:50;;;;;;;4.10;1.20;;;10.20;99.90;;;;;;5021609;28;20046;-58
2023/03/22 07:07:17;;;;;;;11.45;3.42;;;10.30;99.90;;;;;;5012332;28;20048;-58
2023/03/22 07:09:44;;;;;;;5.18;1.00;;;10.30;99.90;;;;;;5016576;28;20148;-59
2023/03/22 07:12:11;;;;;;;12.68;1.20;;;10.30;99.90;;;;;;5026673;28;20145;-60
2023/03/22 07:14:38;;;;;;;6.15;1.10;;;10.40;99.90;;;;;;5022175;28;20555;-58
2023/03/22 07:17:05;;;;;;;9.55;2.88;;;10.40;99.90;;;;;;5011397;28;20050;-59
2023/03/22 07:19:32;;;;;;;8.98;1.73;;;10.40;99.90;;;;;;5015004;28;20140;-59
2023/03/22 07:21:58;;;;;;;13.75;3.05;;;10.50;99.90;;;;;;5026099;28;20049;-60
2023/03/22 07:24:25;;;;;;;17.55;2.90;;;10.50;99.90;;;;;;5022543;28;20072;-60
2023/03/22 07:26:52;;;;;;;13.73;2.20;;;10.50;99.90;;;;;;5013641;28;20068;-60
2023/03/22 07:29:19;;;;;;;19.13;2.15;;;10.60;99.90;;;;;;5015273;28;20042;-59
2023/03/22 07:31:45;;;;;;;10.77;1.60;;;10.70;99.90;;;;;;5022397;28;20042;-60
2023/03/22 07:34:12;;;;;;;13.27;1.83;;;10.60;99.90;;;;;;5021164;28;20054;-60
2023/03/22 07:36:39;;;;;;;13.27;1.75;;;10.70;99.90;;;;;;4662519;28;9999797;-60
2023/03/22 07:39:06;;;;;;;14.48;2.00;;;10.70;99.90;;;;;;5018153;28;20045;-59
2023/03/22 07:41:33;;;;;;;11.48;2.00;;;10.70;99.90;;;;;;5014688;28;20128;-61
2023/03/22 07:43:59;;;;;;;9.40;2.10;;;10.70;99.90;;;;;;5019988;28;20057;-59
2023/03/22 07:46:43;;;;;;;12.10;2.10;;;10.70;99.90;;;;;;5014557;28;20165;-60
2023/03/22 07:49:09;;;;;;;12.70;2.35;;;10.80;99.90;;;;;;5019135;28;20505;-60
2023/03/22 07:51:36;;;;;;;14.98;2.00;;;10.80;99.90;;;;;;5016306;28;20037;-60
2023/03/22 07:54:03;;;;;;;7.38;2.17;;;10.80;99.90;;;;;;5008818;28;20792;-59
2023/03/22 07:56:33;;;;;;;19.83;3.30;;;10.80;99.90;;;;;;5013332;28;20045;-59
2023/03/22 07:59:00;;;;;;;11.60;1.90;;;10.80;99.90;;;;;;5022228;28;20140;-58
2023/03/22 08:01:26;;;;;;;16.75;2.08;;;10.80;99.90;;;;;;5016941;28;20041;-61
2023/03/22 08:03:53;;;;;;;15.77;2.25;;;10.80;99.90;;;;;;5007074;28;20145;-58
2023/03/22 08:06:20;;;;;;;13.27;3.10;;;10.90;99.90;;;;;;5010618;28;20414;-58
2023/03/22 08:08:47;;;;;;;12.30;1.92;;;10.90;99.90;;;;;;4989591;28;20057;-56
2023/03/22 08:11:14;;;;;;;24.80;3.00;;;10.90;99.90;;;;;;5018660;28;20075;-58
2023/03/22 08:13:41;;;;;;;13.88;2.28;;;10.90;99.90;;;;;;5009227;28;20064;-58
2023/03/22 08:16:07;;;;;;;13.40;2.88;;;10.90;99.90;;;;;;5011081;28;20045;-57
2023/03/22 08:18:34;;;;;;;9.35;2.85;;;11.00;99.90;;;;;;5017192;28;20118;-57
2023/03/22 08:21:01;;;;;;;11.23;2.22;;;11.00;99.90;;;;;;5014576;28;20054;-56
2023/03/22 08:23:28;;;;;;;17.27;3.38;;;11.00;99.90;;;;;;5015148;28;20511;-62
2023/03/22 08:26:08;;;;;;;14.68;2.40;;;11.00;99.90;;;;;;5012466;28;20099;-59
2023/03/22 08:28:35;;;;;;;20.08;2.78;;;11.00;99.90;;;;;;5014574;28;20520;-60
2023/03/22 08:31:14;;;;;;;17.98;2.60;;;11.00;99.90;;;;;;5014715;28;20050;-59
2023/03/22 08:33:41;;;;;;;14.25;2.97;;;11.00;99.90;;;;;;4992744;28;20049;-58
2023/03/22 08:36:10;;;;;;;12.40;1.70;;;11.00;99.90;;;;;;5009037;28;20496;-58
2023/03/22 08:38:37;;;;;;;15.48;2.20;;;11.00;99.90;;;;;;4996287;28;20050;-58
2023/03/22 08:41:04;;;;;;;15.68;2.08;;;11.10;99.90;;;;;;5010500;28;20056;-57
2023/03/22 08:43:31;;;;;;;11.50;1.33;;;11.10;99.90;;;;;;5013271;28;20045;-57
2023/03/22 08:45:57;;;;;;;8.70;1.75;;;11.10;99.90;;;;;;5019971;28;20073;-56
2023/03/22 08:48:27;;;;;;;13.50;1.67;;;11.20;99.90;;;;;;4998057;28;20042;-59
2023/03/22 08:50:54;;;;;;;8.75;1.33;;;11.20;99.90;;;;;;5007840;28;20058;-58
2023/03/22 08:53:21;;;;;;;5.93;1.23;;;11.20;99.90;;;;;;5012199;28;20390;-55
2023/03/22 08:55:48;;;;;;;6.70;1.10;;;11.30;99.90;;;;;;5003973;28;20053;-57
2023/03/22 08:58:17;;;;;;;3.08;1.02;;;11.30;99.90;;;;;;5000137;28;20071;-58
2023/03/22 09:00:44;;;;;;;6.38;1.00;;;11.40;99.90;;;;;;5007080;28;20437;-55
2023/03/22 09:03:15;;;;;;;9.93;1.88;;;11.40;99.90;;;;;;5009400;28;20050;-57
2023/03/22 09:05:42;;;;;;;8.55;1.40;;;11.50;99.90;;;;;;5022867;28;20493;-57
2023/03/22 09:08:09;;;;;;;5.00;1.10;;;11.50;99.90;;;;;;5018334;28;20312;-57
2023/03/22 09:10:50;;;;;;;9.30;1.48;;;11.50;99.90;;;;;;4990149;28;20065;-60
2023/03/22 09:13:17;;;;;;;6.63;1.00;;;11.50;99.90;;;;;;5020961;28;20492;-60
2023/03/22 09:15:44;;;;;;;11.93;1.40;;;11.50;99.90;;;;;;4993742;28;20291;-57
2023/03/22 09:18:11;;;;;;;8.18;1.48;;;11.50;99.90;;;;;;5013450;28;20046;-59
2023/03/22 09:20:38;;;;;;;7.35;1.17;;;11.50;99.90;;;;;;5021600;28;20089;-55
2023/03/22 09:23:05;;;;;;;4.53;1.20;;;11.50;99.90;;;;;;5012652;28;20038;-54
2023/03/22 09:25:32;;;;;;;6.72;1.13;;;11.50;99.90;;;;;;5002392;28;20049;-58
2023/03/22 09:27:59;;;;;;;6.85;1.10;;;11.50;99.90;;;;;;5018933;28;20149;-58
2023/03/22 09:30:26;;;;;;;6.32;1.20;;;11.50;99.90;;;;;;5016454;28;20077;-58
2023/03/22 09:32:53;;;;;;;2.92;1.10;;;11.60;99.90;;;;;;5014249;28;20108;-59
2023/03/22 09:35:20;;;;;;;7.70;1.63;;;11.60;99.90;;;;;;5015864;28;20512;-58
2023/03/22 09:37:48;;;;;;;6.50;1.65;;;11.70;99.90;;;;;;5022292;28;20054;-59
2023/03/22 09:40:16;;;;;;;7.90;1.52;;;11.80;99.90;;;;;;5001666;28;20084;-58
2023/03/22 09:42:47;;;;;;;5.13;1.20;;;11.80;99.90;;;;;;5010999;28;20056;-58
2023/03/22 09:45:45;;;;;;;8.23;1.33;;;11.90;99.90;;;;;;5005908;28;20065;-60
2023/03/22 09:48:34;;;;;;;11.77;1.20;;;12.00;99.90;;;;;;4990217;28;20527;-59
2023/03/22 09:51:02;;;;;;;6.03;1.20;;;12.00;99.90;;;;;;4997888;28;20088;-57
2023/03/22 09:53:29;;;;;;;7.85;0.75;;;12.00;99.90;;;;;;5017181;28;20560;-58
2023/03/22 09:55:59;;;;;;;3.03;0.80;;;12.10;99.90;;;;;;5020263;28;20530;-59
2023/03/22 09:58:42;;;;;;;3.72;0.60;;;12.10;99.90;;;;;;5008094;28;20225;-56
2023/03/22 10:01:47;;;;;;;3.20;0.75;;;12.30;99.90;;;;;;5004761;28;20295;-56
2023/03/22 10:04:35;;;;;;;3.70;1.45;;;12.30;99.90;;;;;;5015308;28;20045;-58
2023/03/22 10:07:09;;;;;;;3.92;1.08;;;12.40;99.90;;;;;;5025306;28;20096;-62
2023/03/22 10:10:11;;;;;;;4.85;1.30;;;12.50;99.90;;;;;;5022636;28;20060;-57
2023/03/22 10:13:08;;;;;;;2.65;0.55;;;12.50;99.90;;;;;;4989358;28;20050;-58
2023/03/22 10:15:39;;;;;;;5.30;1.20;;;12.50;99.90;;;;;;5000802;28;20098;-58
2023/03/22 10:18:10;;;;;;;5.20;1.63;;;12.60;99.90;;;;;;5011471;28;20507;-58
2023/03/22 10:21:05;;;;;;;5.88;1.25;;;12.60;99.90;;;;;;5007649;28;20051;-58
2023/03/22 10:23:34;;;;;;;;;;;12.60;99.90;;;;;;4999014;28;20563;-59
2023/03/22 10:26:01;;;;;;;1.88;0.50;;;12.60;99.90;;;;;;5008274;28;19956;-58
2023/03/22 10:28:31;;;;;;;4.97;0.93;;;12.70;99.90;;;;;;4994755;28;20077;-58
2023/03/22 10:30:58;;;;;;;4.18;1.08;;;12.60;99.90;;;;;;4998157;28;20066;-58
2023/03/22 10:33:37;;;;;;;2.97;0.70;;;12.70;99.90;;;;;;5009920;28;20054;-58
2023/03/22 10:36:07;;;;;;;2.63;0.73;;;12.70;99.90;;;;;;4999508;28;20241;-60
2023/03/22 10:38:34;;;;;;;5.50;0.70;;;12.80;99.90;;;;;;5009702;28;20531;-60
2023/03/22 10:41:00;;;;;;;2.53;0.63;;;12.70;99.90;;;;;;5006737;28;20045;-58
2023/03/22 10:43:35;;;;;;;4.47;0.80;;;12.70;99.90;;;;;;4997197;28;20128;-58
2023/03/22 10:46:03;;;;;;;4.10;1.02;;;12.70;99.90;;;;;;4998980;28;20046;-58
2023/03/22 10:48:38;;;;;;;1.05;0.55;;;12.50;99.90;;;;;;5008450;28;20536;-59
2023/03/22 10:51:05;;;;;;;4.18;0.65;;;12.50;99.90;;;;;;5006515;28;20136;-57
2023/03/22 10:53:57;;;;;;;1.17;0.50;;;12.50;99.90;;;;;;4999053;28;20046;-58
2023/03/22 10:56:23;;;;;;;2.10;1.10;;;12.50;99.90;;;;;;5016282;28;20053;-58
2023/03/22 10:58:50;;;;;;;2.97;0.90;;;12.40;99.90;;;;;;5025250;28;20060;-58
2023/03/22 11:01:25;;;;;;;4.38;0.60;;;12.40;99.90;;;;;;5004447;28;20124;-58
2023/03/22 11:03:56;;;;;;;1.67;0.50;;;12.30;99.90;;;;;;5014719;28;20610;-55
2023/03/22 11:06:34;;;;;;;3.17;0.70;;;12.20;99.90;;;;;;5017192;28;20079;-58
2023/03/22 11:09:17;;;;;;;4.50;0.70;;;12.30;99.90;;;;;;5005905;28;20135;-60
2023/03/22 11:11:52;;;;;;;5.73;1.43;;;12.30;99.90;;;;;;4672738;28;10000092;-59
2023/03/22 11:14:35;;;;;;;3.92;0.75;;;12.30;99.90;;;;;;4994456;28;20068;-59
2023/03/22 11:17:05;;;;;;;5.32;0.77;;;12.30;99.90;;;;;;5022918;28;20071;-59
2023/03/22 11:19:36;;;;;;;7.15;1.70;;;12.40;99.90;;;;;;5014263;28;20069;-59
2023/03/22 11:22:05;;;;;;;2.42;0.63;;;12.40;99.90;;;;;;4999182;28;20133;-57
2023/03/22 11:24:32;;;;;;;3.97;0.82;;;12.60;99.90;;;;;;5022997;28;20052;-59
2023/03/22 11:27:23;;;;;;;3.88;0.90;;;12.70;99.90;;;;;;5004158;28;20136;-59
2023/03/22 11:29:51;;;;;;;5.47;0.95;;;12.80;99.90;;;;;;5013127;28;20549;-57
2023/03/22 11:32:26;;;;;;;6.72;0.95;;;13.00;99.90;;;;;;5016647;28;20062;-58
2023/03/22 11:35:03;;;;;;;3.95;0.90;;;13.00;99.90;;;;;;5022846;28;20100;-58
2023/03/22 11:37:30;;;;;;;9.57;1.00;;;13.20;99.90;;;;;;5004624;28;20076;-59
2023/03/22 11:40:01;;;;;;;11.15;1.02;;;13.40;99.90;;;;;;5016826;28;20140;-59
2023/03/22 11:42:27;;;;;;;2.67;0.70;;;13.50;99.90;;;;;;5016916;28;20045;-59
2023/03/22 11:44:54;;;;;;;5.32;0.82;;;13.40;99.90;;;;;;5021415;28;20045;-59
2023/03/22 11:47:22;;;;;;;5.00;0.77;;;13.40;99.90;;;;;;5021591;28;20046;-58
2023/03/22 11:49:49;;;;;;;2.30;0.70;;;13.50;99.90;;;;;;5003081;28;20129;-59
2023/03/22 11:52:25;;;;;;;2.17;0.60;;;13.60;99.90;;;;;;4996626;28;20045;-58
2023/03/22 11:54:51;;;;;;;6.70;0.57;;;13.60;99.90;;;;;;5000315;28;20052;-58
2023/03/22 11:57:26;;;;;;;3.60;0.43;;;13.70;99.90;;;;;;5007084;28;20069;-59
2023/03/22 11:59:59;;;;;;;0.50;0.40;;;13.70;99.90;;;;;;5020020;28;20162;-60
2023/03/22 12:02:32;;;;;;;0.90;0.38;;;13.70;99.90;;;;;;4995160;28;20042;-59
2023/03/22 12:05:10;;;;;;;1.88;0.40;;;13.60;99.90;;;;;;5022503;28;20315;-58
2023/03/22 12:07:36;;;;;;;2.55;0.30;;;13.70;99.90;;;;;;5006845;28;20062;-58
2023/03/22 12:10:05;;;;;;;0.20;0.20;;;13.70;99.90;;;;;;4990417;28;20046;-59
2023/03/22 12:12:36;;;;;;;1.92;0.45;;;13.70;99.90;;;;;;4994249;28;20461;-58
2023/03/22 12:15:09;;;;;;;5.55;0.90;;;13.80;99.90;;;;;;4981601;28;20412;-58
2023/03/22 12:17:53;;;;;;;5.60;0.55;;;13.90;99.90;;;;;;5008069;28;20137;-58
2023/03/22 12:20:32;;;;;;;6.30;0.52;;;13.90;99.90;;;;;;5019878;28;20519;-58
2023/03/22 12:22:59;;;;;;;3.72;0.80;;;13.90;99.90;;;;;;5012086;28;20058;-57
2023/03/22 12:25:32;;;;;;;1.17;0.30;;;13.90;99.90;;;;;;5003174;28;20038;-57
2023/03/22 12:28:06;;;;;;;1.05;0.40;;;13.80;99.90;;;;;;4993732;28;20489;-58
2023/03/22 12:30:41;;;;;;;4.75;0.50;;;13.90;99.90;;;;;;4987147;28;20480;-59
2023/03/22 12:33:14;;;;;;;2.75;0.25;;;14.10;99.90;;;;;;4993666;28;20076;-58
2023/03/22 12:35:42;;;;;;;3.47;0.40;;;14.10;99.90;;;;;;4998616;28;20052;-58
2023/03/22 12:38:41;;;;;;;4.75;0.63;;;14.20;99.90;;;;;;5007458;28;20050;-56
2023/03/22 12:41:13;;;;;;;1.42;0.50;;;14.30;99.90;;;;;;5019913;28;20138;-57
2023/03/22 12:43:58;;;;;;;2.40;0.55;;;14.40;99.90;;;;;;4994136;28;20046;-57
2023/03/22 12:46:30;;;;;;;2.45;0.40;;;14.40;99.90;;;;;;5016850;28;20092;-57
2023/03/22 12:49:20;;;;;;;3.38;0.50;;;14.40;99.90;;;;;;4990153;28;20496;-58
2023/03/22 12:51:47;;;;;;;1.33;0.63;;;14.40;99.90;;;;;;4990790;28;20522;-59
2023/03/22 12:54:14;;;;;;;6.53;0.82;;;14.50;99.90;;;;;;4989407;28;20053;-57
2023/03/22 12:56:44;;;;;;;4.32;0.93;;;14.40;99.90;;;;;;5019670;28;20085;-60
2023/03/22 12:59:17;;;;;;;1.20;0.70;;;14.50;99.90;;;;;;4978405;28;20502;-59
2023/03/22 13:02:05;;;;;;;4.82;1.08;;;14.50;99.90;;;;;;4985837;28;20033;-59